sensor_id;sensor_type;location;lat;lon;timestamp;pressure;altitude;pressure_sealevel;temperature;humidity
27014;BME280;14556;52.222;4.510;2023-04-25T00:01:03;100451.13;;;4.74;100.00
27014;BME280;14556;52.222;4.510;2023-04-25T00:03:31;100447.63;;;4.82;100.00
27014;BME280;14556;52.222;4.510;2023-04-25T00:05:58;100446.13;;;4.88;100.00
27014;BME280;14556;52.222;4.510;2023-04-25T00:08:29;100444.97;;;4.90;100.00
27014;BME280;14556;52.222;4.510;2023-04-25T00:10:57;100447.94;;;4.87;100.00
27014;BME280;14556;52.222;4.510;2023-04-25T00:13:23;100458.38;;;4.89;100.00
27014;BME280;14556;52.222;4.510;2023-04-25T00:15:52;100447.44;;;4.83;100.00
27014;BME280;14556;52.222;4.510;2023-04-25T00:18:19;100456.22;;;4.84;100.00
27014;BME280;14556;52.222;4.510;2023-04-25T00:20:46;100459.22;;;4.81;100.00
27014;BME280;14556;52.222;4.510;2023-04-25T00:23:14;100455.56;;;4.82;100.00
27014;BME280;14556;52.222;4.510;2023-04-25T00:25:44;100447.31;;;4.77;100.00
27014;BME280;14556;52.222;4.510;2023-04-25T00:28:11;100447.31;;;4.77;100.00
27014;BME280;14556;52.222;4.510;2023-04-25T00:30:39;100437.41;;;4.70;100.00
27014;BME280;14556;52.222;4.510;2023-04-25T00:33:06;100452.75;;;4.83;100.00
27014;BME280;14556;52.222;4.510;2023-04-25T00:35:33;100448.78;;;4.88;100.00
27014;BME280;14556;52.222;4.510;2023-04-25T00:38:00;100443.66;;;4.86;100.00
27014;BME280;14556;52.222;4.510;2023-04-25T00:40:27;100446.44;;;4.93;100.00
27014;BME280;14556;52.222;4.510;2023-04-25T00:42:54;100446.59;;;4.91;100.00
27014;BME280;14556;52.222;4.510;2023-04-25T00:45:21;100455.22;;;4.93;100.00
27014;BME280;14556;52.222;4.510;2023-04-25T00:47:47;100453.91;;;4.89;100.00
27014;BME280;14556;52.222;4.510;2023-04-25T00:50:15;100451.59;;;4.86;100.00
27014;BME280;14556;52.222;4.510;2023-04-25T00:52:43;100445.97;;;4.81;100.00
27014;BME280;14556;52.222;4.510;2023-04-25T00:55:11;100449.28;;;4.83;100.00
27014;BME280;14556;52.222;4.510;2023-04-25T00:57:39;100455.41;;;4.83;100.00
27014;BME280;14556;52.222;4.510;2023-04-25T01:00:06;100439.88;;;4.72;100.00
27014;BME280;14556;52.222;4.510;2023-04-25T01:02:34;100457.41;;;4.73;100.00
27014;BME280;14556;52.222;4.510;2023-04-25T01:05:02;100467.84;;;4.75;100.00
27014;BME280;14556;52.222;4.510;2023-04-25T01:07:29;100462.09;;;4.71;100.00
27014;BME280;14556;52.222;4.510;2023-04-25T01:09:56;100467.53;;;4.69;100.00
27014;BME280;14556;52.222;4.510;2023-04-25T01:12:23;100466.72;;;4.69;100.00
27014;BME280;14556;52.222;4.510;2023-04-25T01:14:50;100463.91;;;4.62;100.00
27014;BME280;14556;52.222;4.510;2023-04-25T01:17:18;100472.50;;;4.64;100.00
27014;BME280;14556;52.222;4.510;2023-04-25T01:19:45;100461.59;;;4.59;100.00
27014;BME280;14556;52.222;4.510;2023-04-25T01:22:14;100459.28;;;4.56;100.00
27014;BME280;14556;52.222;4.510;2023-04-25T01:24:41;100465.09;;;4.51;100.00
27014;BME280;14556;52.222;4.510;2023-04-25T01:27:08;100474.81;;;4.59;100.00
27014;BME280;14556;52.222;4.510;2023-04-25T01:29:35;100475.00;;;4.57;100.00
27014;BME280;14556;52.222;4.510;2023-04-25T01:32:02;100470.38;;;4.59;100.00
27014;BME280;14556;52.222;4.510;2023-04-25T01:34:29;100480.63;;;4.63;100.00
27014;BME280;14556;52.222;4.510;2023-04-25T01:36:56;100469.88;;;4.56;100.00
27014;BME280;14556;52.222;4.510;2023-04-25T01:39:25;100468.06;;;4.56;100.00
27014;BME280;14556;52.222;4.510;2023-04-25T01:41:52;100478.63;;;4.65;100.00
27014;BME280;14556;52.222;4.510;2023-04-25T01:44:18;100477.31;;;4.69;100.00
27014;BME280;14556;52.222;4.510;2023-04-25T01:46:45;100481.44;;;4.71;100.00
27014;BME280;14556;52.222;4.510;2023-04-25T01:49:12;100464.72;;;4.63;100.00
27014;BME280;14556;52.222;4.510;2023-04-25T01:51:39;100474.97;;;4.74;100.00
27014;BME280;14556;52.222;4.510;2023-04-25T01:54:07;100483.25;;;4.79;100.00
27014;BME280;14556;52.222;4.510;2023-04-25T01:56:37;100465.72;;;4.62;100.00
27014;BME280;14556;52.222;4.510;2023-04-25T01:59:04;100490.38;;;4.79;100.00
27014;BME280;14556;52.222;4.510;2023-04-25T02:01:32;100493.03;;;4.79;100.00
27014;BME280;14556;52.222;4.510;2023-04-25T02:03:58;100486.56;;;4.73;100.00
27014;BME280;14556;52.222;4.510;2023-04-25T02:06:25;100498.97;;;4.81;100.00
27014;BME280;14556;52.222;4.510;2023-04-25T02:08:52;100483.91;;;4.81;100.00
27014;BME280;14556;52.222;4.510;2023-04-25T02:11:18;100497.81;;;4.83;100.00
27014;BME280;14556;52.222;4.510;2023-04-25T02:13:44;100488.03;;;4.84;100.00
27014;BME280;14556;52.222;4.510;2023-04-25T02:16:11;100482.91;;;4.82;100.00
27014;BME280;14556;52.222;4.510;2023-04-25T02:18:38;100489.03;;;4.83;100.00
27014;BME280;14556;52.222;4.510;2023-04-25T02:21:06;100487.38;;;4.82;100.00
27014;BME280;14556;52.222;4.510;2023-04-25T02:23:32;100494.66;;;4.80;100.00
27014;BME280;14556;52.222;4.510;2023-04-25T02:25:59;100493.69;;;4.81;100.00
27014;BME280;14556;52.222;4.510;2023-04-25T02:28:26;100490.03;;;4.82;100.00
27014;BME280;14556;52.222;4.510;2023-04-25T02:30:52;100500.28;;;4.85;100.00
27014;BME280;14556;52.222;4.510;2023-04-25T02:33:19;100505.44;;;4.78;100.00
27014;BME280;14556;52.222;4.510;2023-04-25T02:35:47;100498.50;;;4.77;100.00
27014;BME280;14556;52.222;4.510;2023-04-25T02:38:14;100504.81;;;4.76;100.00
27014;BME280;14556;52.222;4.510;2023-04-25T02:40:41;100516.56;;;4.74;100.00
27014;BME280;14556;52.222;4.510;2023-04-25T02:43:07;100519.53;;;4.70;100.00
27014;BME280;14556;52.222;4.510;2023-04-25T02:45:34;100516.06;;;4.70;100.00
27014;BME280;14556;52.222;4.510;2023-04-25T02:48:02;100519.56;;;4.62;100.00
27014;BME280;14556;52.222;4.510;2023-04-25T02:50:29;100529.50;;;4.60;100.00
27014;BME280;14556;52.222;4.510;2023-04-25T02:52:55;100529.81;;;4.57;100.00
27014;BME280;14556;52.222;4.510;2023-04-25T02:55:22;100526.19;;;4.50;100.00
27014;BME280;14556;52.222;4.510;2023-04-25T02:57:50;100518.06;;;4.43;100.00
27014;BME280;14556;52.222;4.510;2023-04-25T03:00:17;100526.66;;;4.45;100.00
27014;BME280;14556;52.222;4.510;2023-04-25T03:02:43;100532.97;;;4.44;100.00
27014;BME280;14556;52.222;4.510;2023-04-25T03:05:10;100525.53;;;4.39;100.00
27014;BME280;14556;52.222;4.510;2023-04-25T03:07:36;100531.97;;;4.37;100.00
27014;BME280;14556;52.222;4.510;2023-04-25T03:10:06;100530.97;;;4.29;100.00
27014;BME280;14556;52.222;4.510;2023-04-25T03:12:33;100530.31;;;4.27;100.00
27014;BME280;14556;52.222;4.510;2023-04-25T03:15:00;100521.53;;;4.18;100.00
27014;BME280;14556;52.222;4.510;2023-04-25T03:17:27;100528.31;;;4.29;100.00
27014;BME280;14556;52.222;4.510;2023-04-25T03:19:54;100528.47;;;4.28;100.00
27014;BME280;14556;52.222;4.510;2023-04-25T03:22:21;100528.16;;;4.22;100.00
27014;BME280;14556;52.222;4.510;2023-04-25T03:24:48;100522.34;;;4.19;100.00
27014;BME280;14556;52.222;4.510;2023-04-25T03:27:14;100527.13;;;4.15;100.00
27014;BME280;14556;52.222;4.510;2023-04-25T03:29:41;100534.94;;;4.17;100.00
27014;BME280;14556;52.222;4.510;2023-04-25T03:32:07;100530.47;;;4.09;100.00
27014;BME280;14556;52.222;4.510;2023-04-25T03:34:34;100541.22;;;4.07;100.00
27014;BME280;14556;52.222;4.510;2023-04-25T03:37:01;100534.75;;;4.10;100.00
27014;BME280;14556;52.222;4.510;2023-04-25T03:39:27;100521.00;;;4.06;100.00
27014;BME280;14556;52.222;4.510;2023-04-25T03:41:54;100538.22;;;4.10;100.00
27014;BME280;14556;52.222;4.510;2023-04-25T03:44:21;100541.53;;;4.13;100.00
27014;BME280;14556;52.222;4.510;2023-04-25T03:46:47;100551.31;;;4.12;100.00
27014;BME280;14556;52.222;4.510;2023-04-25T03:49:14;100546.00;;;4.12;100.00
27014;BME280;14556;52.222;4.510;2023-04-25T03:51:44;100538.56;;;4.07;100.00
27014;BME280;14556;52.222;4.510;2023-04-25T03:54:10;100544.03;;;4.14;100.00
27014;BME280;14556;52.222;4.510;2023-04-25T03:56:37;100549.00;;;4.17;100.00
27014;BME280;14556;52.222;4.510;2023-04-25T03:59:03;100554.78;;;4.21;100.00
27014;BME280;14556;52.222;4.510;2023-04-25T04:01:30;100555.97;;;4.18;100.00
27014;BME280;14556;52.222;4.510;2023-04-25T04:03:57;100555.13;;;4.09;100.00
27014;BME280;14556;52.222;4.510;2023-04-25T04:06:24;100557.59;;;4.03;100.00
27014;BME280;14556;52.222;4.510;2023-04-25T04:08:51;100578.44;;;4.06;100.00
27014;BME280;14556;52.222;4.510;2023-04-25T04:11:18;100584.69;;;4.05;100.00
27014;BME280;14556;52.222;4.510;2023-04-25T04:13:44;100572.47;;;3.95;100.00
27014;BME280;14556;52.222;4.510;2023-04-25T04:16:11;100573.59;;;3.93;100.00
27014;BME280;14556;52.222;4.510;2023-04-25T04:18:37;100562.31;;;3.82;100.00
27014;BME280;14556;52.222;4.510;2023-04-25T04:21:04;100580.72;;;3.92;100.00
27014;BME280;14556;52.222;4.510;2023-04-25T04:23:31;100586.00;;;3.92;100.00
27014;BME280;14556;52.222;4.510;2023-04-25T04:25:57;100581.38;;;3.94;100.00
27014;BME280;14556;52.222;4.510;2023-04-25T04:28:24;100587.31;;;3.88;100.00
27014;BME280;14556;52.222;4.510;2023-04-25T04:30:52;100587.31;;;3.88;100.00
27014;BME280;14556;52.222;4.510;2023-04-25T04:33:19;100589.78;;;3.90;100.00
27014;BME280;14556;52.222;4.510;2023-04-25T04:35:46;100572.06;;;3.82;100.00
27014;BME280;14556;52.222;4.510;2023-04-25T04:38:14;100583.31;;;3.84;100.00
27014;BME280;14556;52.222;4.510;2023-04-25T04:40:42;100582.66;;;3.82;100.00
27014;BME280;14556;52.222;4.510;2023-04-25T04:43:12;100595.22;;;3.80;100.00
27014;BME280;14556;52.222;4.510;2023-04-25T04:45:39;100586.94;;;3.74;100.00
27014;BME280;14556;52.222;4.510;2023-04-25T04:48:06;100582.16;;;3.78;100.00
27014;BME280;14556;52.222;4.510;2023-04-25T04:50:33;100588.09;;;3.80;100.00
27014;BME280;14556;52.222;4.510;2023-04-25T04:53:00;100587.94;;;3.82;100.00
27014;BME280;14556;52.222;4.510;2023-04-25T04:55:26;100592.09;;;3.84;100.00
27014;BME280;14556;52.222;4.510;2023-04-25T04:57:53;100600.91;;;3.93;100.00
27014;BME280;14556;52.222;4.510;2023-04-25T05:00:20;100607.22;;;4.09;100.00
27014;BME280;14556;52.222;4.510;2023-04-25T05:02:47;100608.06;;;4.09;100.00
27014;BME280;14556;52.222;4.510;2023-04-25T05:05:14;100605.41;;;4.09;100.00
27014;BME280;14556;52.222;4.510;2023-04-25T05:07:40;100608.56;;;4.13;100.00
27014;BME280;14556;52.222;4.510;2023-04-25T05:10:07;100605.06;;;4.04;100.00
27014;BME280;14556;52.222;4.510;2023-04-25T05:12:34;100619.59;;;4.00;100.00
27014;BME280;14556;52.222;4.510;2023-04-25T05:15:02;100611.31;;;3.95;100.00
27014;BME280;14556;52.222;4.510;2023-04-25T05:17:29;100603.16;;;3.80;100.00
27014;BME280;14556;52.222;4.510;2023-04-25T05:19:55;100616.75;;;3.85;100.00
27014;BME280;14556;52.222;4.510;2023-04-25T05:22:22;100630.84;;;3.94;100.00
27014;BME280;14556;52.222;4.510;2023-04-25T05:24:49;100648.56;;;4.02;100.00
27014;BME280;14556;52.222;4.510;2023-04-25T05:27:17;100656.88;;;4.15;100.00
27014;BME280;14556;52.222;4.510;2023-04-25T05:29:44;100661.88;;;4.18;100.00
27014;BME280;14556;52.222;4.510;2023-04-25T05:32:11;100659.16;;;4.10;100.00
27014;BME280;14556;52.222;4.510;2023-04-25T05:34:37;100669.72;;;3.93;100.00
27014;BME280;14556;52.222;4.510;2023-04-25T05:37:04;100668.00;;;3.84;100.00
27014;BME280;14556;52.222;4.510;2023-04-25T05:39:31;100647.72;;;3.66;100.00
27014;BME280;14556;52.222;4.510;2023-04-25T05:41:57;100673.06;;;3.69;100.00
27014;BME280;14556;52.222;4.510;2023-04-25T05:44:23;100674.31;;;3.56;100.00
27014;BME280;14556;52.222;4.510;2023-04-25T05:46:50;100675.75;;;3.50;100.00
27014;BME280;14556;52.222;4.510;2023-04-25T05:49:17;100672.75;;;3.45;100.00
27014;BME280;14556;52.222;4.510;2023-04-25T05:51:45;100687.38;;;3.58;100.00
27014;BME280;14556;52.222;4.510;2023-04-25T05:54:11;100688.56;;;3.63;100.00
27014;BME280;14556;52.222;4.510;2023-04-25T05:56:37;100690.06;;;3.66;100.00
27014;BME280;14556;52.222;4.510;2023-04-25T05:59:04;100685.09;;;3.63;100.00
27014;BME280;14556;52.222;4.510;2023-04-25T06:01:31;100675.31;;;3.55;100.00
27014;BME280;14556;52.222;4.510;2023-04-25T06:03:57;100694.03;;;3.62;100.00
27014;BME280;14556;52.222;4.510;2023-04-25T06:06:24;100693.56;;;3.67;100.00
27014;BME280;14556;52.222;4.510;2023-04-25T06:08:53;100697.91;;;3.76;100.00
27014;BME280;14556;52.222;4.510;2023-04-25T06:11:20;100683.38;;;3.80;100.00
27014;BME280;14556;52.222;4.510;2023-04-25T06:13:47;100683.09;;;3.92;100.00
27014;BME280;14556;52.222;4.510;2023-04-25T06:16:14;100701.69;;;4.08;100.00
27014;BME280;14556;52.222;4.510;2023-04-25T06:18:41;100693.94;;;4.15;100.00
27014;BME280;14556;52.222;4.510;2023-04-25T06:21:07;100690.50;;;4.23;100.00
27014;BME280;14556;52.222;4.510;2023-04-25T06:23:33;100699.50;;;4.39;100.00
27014;BME280;14556;52.222;4.510;2023-04-25T06:26:00;100695.53;;;4.43;100.00
27014;BME280;14556;52.222;4.510;2023-04-25T06:28:27;100698.72;;;4.55;100.00
27014;BME280;14556;52.222;4.510;2023-04-25T06:30:53;100703.19;;;4.63;100.00
27014;BME280;14556;52.222;4.510;2023-04-25T06:33:20;100701.53;;;4.70;100.00
27014;BME280;14556;52.222;4.510;2023-04-25T06:35:47;100701.38;;;4.71;100.00
27014;BME280;14556;52.222;4.510;2023-04-25T06:38:15;100695.59;;;4.76;100.00
27014;BME280;14556;52.222;4.510;2023-04-25T06:40:41;100694.25;;;4.72;100.00
27014;BME280;14556;52.222;4.510;2023-04-25T06:43:08;100693.94;;;4.75;100.00
27014;BME280;14556;52.222;4.510;2023-04-25T06:45:34;100703.69;;;4.75;100.00
27014;BME280;14556;52.222;4.510;2023-04-25T06:48:01;100711.84;;;4.81;100.00
27014;BME280;14556;52.222;4.510;2023-04-25T06:50:27;100704.88;;;4.89;100.00
27014;BME280;14556;52.222;4.510;2023-04-25T06:52:54;100704.22;;;4.95;100.00
27014;BME280;14556;52.222;4.510;2023-04-25T06:55:20;100707.22;;;5.00;100.00
27014;BME280;14556;52.222;4.510;2023-04-25T06:57:47;100715.50;;;5.05;100.00
27014;BME280;14556;52.222;4.510;2023-04-25T07:00:14;100710.19;;;5.05;100.00
27014;BME280;14556;52.222;4.510;2023-04-25T07:02:40;100705.22;;;5.02;100.00
27014;BME280;14556;52.222;4.510;2023-04-25T07:05:09;100710.38;;;5.04;100.00
27014;BME280;14556;52.222;4.510;2023-04-25T07:07:35;100719.63;;;5.08;100.00
27014;BME280;14556;52.222;4.510;2023-04-25T07:10:02;100713.00;;;5.12;100.00
27014;BME280;14556;52.222;4.510;2023-04-25T07:12:29;100712.00;;;5.13;100.00
27014;BME280;14556;52.222;4.510;2023-04-25T07:14:55;100717.47;;;5.12;100.00
27014;BME280;14556;52.222;4.510;2023-04-25T07:17:22;100715.34;;;5.07;100.00
27014;BME280;14556;52.222;4.510;2023-04-25T07:19:48;100713.03;;;5.04;100.00
27014;BME280;14556;52.222;4.510;2023-04-25T07:22:15;100713.81;;;5.04;100.00
27014;BME280;14556;52.222;4.510;2023-04-25T07:24:41;100717.66;;;5.10;100.00
27014;BME280;14556;52.222;4.510;2023-04-25T07:27:08;100720.97;;;5.20;100.00
27014;BME280;14556;52.222;4.510;2023-04-25T07:29:34;100722.59;;;5.47;100.00
27014;BME280;14556;52.222;4.510;2023-04-25T07:32:04;100723.09;;;5.67;100.00
27014;BME280;14556;52.222;4.510;2023-04-25T07:34:31;100728.19;;;5.77;100.00
27014;BME280;14556;52.222;4.510;2023-04-25T07:36:58;100724.88;;;5.83;100.00
27014;BME280;14556;52.222;4.510;2023-04-25T07:39:26;100724.38;;;5.79;100.00
27014;BME280;14556;52.222;4.510;2023-04-25T07:41:52;100728.69;;;5.80;100.00
27014;BME280;14556;52.222;4.510;2023-04-25T07:44:20;100733.63;;;5.92;100.00
27014;BME280;14556;52.222;4.510;2023-04-25T07:46:47;100740.41;;;6.11;100.00
27014;BME280;14556;52.222;4.510;2023-04-25T07:49:13;100743.38;;;6.16;100.00
27014;BME280;14556;52.222;4.510;2023-04-25T07:51:40;100733.44;;;6.10;100.00
27014;BME280;14556;52.222;4.510;2023-04-25T07:54:07;100755.53;;;6.11;100.00
27014;BME280;14556;52.222;4.510;2023-04-25T07:56:33;100752.56;;;5.89;100.00
27014;BME280;14556;52.222;4.510;2023-04-25T07:59:17;100760.41;;;5.65;100.00
27014;BME280;14556;52.222;4.510;2023-04-25T08:01:44;100768.03;;;5.68;100.00
27014;BME280;14556;52.222;4.510;2023-04-25T08:04:10;100764.00;;;5.89;100.00
27014;BME280;14556;52.222;4.510;2023-04-25T08:06:37;100771.47;;;6.11;100.00
27014;BME280;14556;52.222;4.510;2023-04-25T08:09:04;100770.19;;;6.38;100.00
27014;BME280;14556;52.222;4.510;2023-04-25T08:11:32;100774.13;;;6.51;100.00
27014;BME280;14556;52.222;4.510;2023-04-25T08:13:58;100775.81;;;6.44;100.00
27014;BME280;14556;52.222;4.510;2023-04-25T08:16:25;100771.59;;;6.18;100.00
27014;BME280;14556;52.222;4.510;2023-04-25T08:18:51;100775.75;;;6.12;100.00
27014;BME280;14556;52.222;4.510;2023-04-25T08:21:20;100774.59;;;5.98;100.00
27014;BME280;14556;52.222;4.510;2023-04-25T08:23:47;100798.50;;;5.98;100.00
27014;BME280;14556;52.222;4.510;2023-04-25T08:26:15;100809.66;;;5.93;100.00
27014;BME280;14556;52.222;4.510;2023-04-25T08:28:41;100811.81;;;5.89;100.00
27014;BME280;14556;52.222;4.510;2023-04-25T08:31:08;100827.72;;;5.98;100.00
27014;BME280;14556;52.222;4.510;2023-04-25T08:33:34;100828.38;;;6.08;100.00
27014;BME280;14556;52.222;4.510;2023-04-25T08:36:00;100835.00;;;6.21;100.00
27014;BME280;14556;52.222;4.510;2023-04-25T08:38:27;100839.50;;;6.28;100.00
27014;BME280;14556;52.222;4.510;2023-04-25T08:40:54;100840.28;;;6.29;100.00
27014;BME280;14556;52.222;4.510;2023-04-25T08:43:23;100825.56;;;6.18;100.00
27014;BME280;14556;52.222;4.510;2023-04-25T08:45:52;100830.25;;;6.08;100.00
27014;BME280;14556;52.222;4.510;2023-04-25T08:48:21;100842.19;;;5.70;100.00
27014;BME280;14556;52.222;4.510;2023-04-25T08:50:52;100888.28;;;5.61;100.00
27014;BME280;14556;52.222;4.510;2023-04-25T08:53:25;100887.28;;;5.53;100.00
27014;BME280;14556;52.222;4.510;2023-04-25T08:55:55;100905.88;;;5.87;100.00
27014;BME280;14556;52.222;4.510;2023-04-25T08:58:22;100903.06;;;6.22;100.00
27014;BME280;14556;52.222;4.510;2023-04-25T09:00:51;100898.09;;;6.35;100.00
27014;BME280;14556;52.222;4.510;2023-04-25T09:03:18;100908.03;;;6.33;100.00
27014;BME280;14556;52.222;4.510;2023-04-25T09:05:45;100930.81;;;6.19;100.00
27014;BME280;14556;52.222;4.510;2023-04-25T09:08:12;100923.47;;;5.79;100.00
27014;BME280;14556;52.222;4.510;2023-04-25T09:10:39;100923.28;;;5.56;100.00
27014;BME280;14556;52.222;4.510;2023-04-25T09:15:50;100931.09;;;5.06;100.00
27014;BME280;14556;52.222;4.510;2023-04-25T09:18:29;100916.41;;;4.85;100.00
27014;BME280;14556;52.222;4.510;2023-04-25T09:21:11;100930.75;;;5.01;100.00
27014;BME280;14556;52.222;4.510;2023-04-25T09:23:46;100919.69;;;5.14;100.00
27014;BME280;14556;52.222;4.510;2023-04-25T09:26:20;100944.03;;;5.69;100.00
27014;BME280;14556;52.222;4.510;2023-04-25T09:28:47;100931.28;;;5.98;100.00
27014;BME280;14556;52.222;4.510;2023-04-25T09:31:22;100932.28;;;6.13;100.00
27014;BME280;14556;52.222;4.510;2023-04-25T09:33:59;100932.78;;;6.34;100.00
27014;BME280;14556;52.222;4.510;2023-04-25T09:36:29;100934.25;;;6.53;100.00
27014;BME280;14556;52.222;4.510;2023-04-25T09:38:56;100924.91;;;6.74;100.00
27014;BME280;14556;52.222;4.510;2023-04-25T09:41:25;100927.94;;;7.03;100.00
27014;BME280;14556;52.222;4.510;2023-04-25T09:43:56;100917.91;;;7.21;100.00
27014;BME280;14556;52.222;4.510;2023-04-25T09:46:23;100923.41;;;7.43;100.00
27014;BME280;14556;52.222;4.510;2023-04-25T09:48:51;100919.44;;;7.39;100.00
27014;BME280;14556;52.222;4.510;2023-04-25T09:51:19;100896.06;;;7.26;100.00
27014;BME280;14556;52.222;4.510;2023-04-25T09:53:47;100923.13;;;7.38;100.00
27014;BME280;14556;52.222;4.510;2023-04-25T09:56:18;100895.28;;;7.17;100.00
27014;BME280;14556;52.222;4.510;2023-04-25T09:58:46;100921.34;;;7.30;100.00
27014;BME280;14556;52.222;4.510;2023-04-25T10:01:14;100918.03;;;7.28;100.00
27014;BME280;14556;52.222;4.510;2023-04-25T10:03:43;100913.97;;;7.41;100.00
27014;BME280;14556;52.222;4.510;2023-04-25T10:06:12;100927.91;;;7.43;100.00
27014;BME280;14556;52.222;4.510;2023-04-25T10:08:41;100934.72;;;7.45;100.00
27014;BME280;14556;52.222;4.510;2023-04-25T10:11:08;100941.19;;;7.51;100.00
27014;BME280;14556;52.222;4.510;2023-04-25T10:13:36;100937.03;;;7.48;100.00
27014;BME280;14556;52.222;4.510;2023-04-25T10:16:04;100927.91;;;7.43;100.00
27014;BME280;14556;52.222;4.510;2023-04-25T10:18:32;100936.38;;;7.46;100.00
27014;BME280;14556;52.222;4.510;2023-04-25T10:21:03;100944.25;;;7.63;100.00
27014;BME280;14556;52.222;4.510;2023-04-25T10:23:31;100933.78;;;7.61;100.00
27014;BME280;14556;52.222;4.510;2023-04-25T10:26:00;100948.88;;;7.69;100.00
27014;BME280;14556;52.222;4.510;2023-04-25T10:28:27;100942.56;;;7.70;100.00
27014;BME280;14556;52.222;4.510;2023-04-25T10:31:04;100945.63;;;7.82;100.00
27014;BME280;14556;52.222;4.510;2023-04-25T10:36:21;100951.94;;;7.81;100.00
27014;BME280;14556;52.222;4.510;2023-04-25T10:38:50;100945.81;;;7.81;100.00
27014;BME280;14556;52.222;4.510;2023-04-25T10:41:18;100953.63;;;7.82;100.00
27014;BME280;14556;52.222;4.510;2023-04-25T10:43:46;100952.72;;;7.90;100.00
27014;BME280;14556;52.222;4.510;2023-04-25T10:46:23;100957.88;;;7.92;100.00
27014;BME280;14556;52.222;4.510;2023-04-25T10:48:58;100947.22;;;7.92;100.00
27014;BME280;14556;52.222;4.510;2023-04-25T10:51:26;100955.38;;;7.90;100.00
27014;BME280;14556;52.222;4.510;2023-04-25T10:54:02;100945.38;;;7.92;100.00
27014;BME280;14556;52.222;4.510;2023-04-25T11:01:43;100943.97;;;8.05;100.00
27014;BME280;14556;52.222;4.510;2023-04-25T11:04:29;100941.94;;;8.07;100.00
27014;BME280;14556;52.222;4.510;2023-04-25T11:09:43;100940.88;;;7.69;100.00
27014;BME280;14556;52.222;4.510;2023-04-25T11:12:12;100954.72;;;7.88;100.00
27014;BME280;14556;52.222;4.510;2023-04-25T11:14:39;100951.19;;;7.96;100.00
27014;BME280;14556;52.222;4.510;2023-04-25T11:17:11;100962.72;;;8.12;100.00
27014;BME280;14556;52.222;4.510;2023-04-25T11:19:38;100950.75;;;8.07;100.00
27014;BME280;14556;52.222;4.510;2023-04-25T11:22:04;100960.50;;;8.00;100.00
27014;BME280;14556;52.222;4.510;2023-04-25T11:24:33;100959.16;;;7.72;100.00
27014;BME280;14556;52.222;4.510;2023-04-25T11:27:04;100958.88;;;7.67;100.00
27014;BME280;14556;52.222;4.510;2023-04-25T11:29:33;100959.63;;;7.53;100.00
27014;BME280;14556;52.222;4.510;2023-04-25T11:32:01;100967.94;;;7.58;100.00
27014;BME280;14556;52.222;4.510;2023-04-25T11:34:29;100957.22;;;7.66;100.00
27014;BME280;14556;52.222;4.510;2023-04-25T11:36:57;100963.91;;;7.85;100.00
27014;BME280;14556;52.222;4.510;2023-04-25T11:39:24;100955.84;;;7.94;100.00
27014;BME280;14556;52.222;4.510;2023-04-25T11:41:52;100966.88;;;7.91;100.00
27014;BME280;14556;52.222;4.510;2023-04-25T11:44:19;100965.09;;;7.83;100.00
27014;BME280;14556;52.222;4.510;2023-04-25T11:46:46;100967.16;;;7.96;100.00
27014;BME280;14556;52.222;4.510;2023-04-25T11:49:14;100984.56;;;7.83;100.00
27014;BME280;14556;52.222;4.510;2023-04-25T11:51:45;100979.97;;;7.77;100.00
27014;BME280;14556;52.222;4.510;2023-04-25T11:54:12;100981.53;;;7.63;100.00
27014;BME280;14556;52.222;4.510;2023-04-25T11:56:46;100990.09;;;7.50;100.00
27014;BME280;14556;52.222;4.510;2023-04-25T11:59:12;101005.69;;;7.61;100.00
27014;BME280;14556;52.222;4.510;2023-04-25T12:01:48;100993.47;;;7.67;100.00
27014;BME280;14556;52.222;4.510;2023-04-25T12:06:44;101008.53;;;7.52;100.00
27014;BME280;14556;52.222;4.510;2023-04-25T12:09:13;101017.09;;;7.38;100.00
27014;BME280;14556;52.222;4.510;2023-04-25T12:11:44;101003.25;;;7.43;100.00
27014;BME280;14556;52.222;4.510;2023-04-25T12:14:12;101016.63;;;7.67;100.00
27014;BME280;14556;52.222;4.510;2023-04-25T12:16:43;101009.38;;;7.84;100.00
27014;BME280;14556;52.222;4.510;2023-04-25T12:19:14;101010.22;;;7.84;100.00
27014;BME280;14556;52.222;4.510;2023-04-25T12:21:41;101001.69;;;7.89;100.00
27014;BME280;14556;52.222;4.510;2023-04-25T12:24:24;101007.84;;;7.90;100.00
27014;BME280;14556;52.222;4.510;2023-04-25T12:27:05;101011.50;;;7.89;100.00
27014;BME280;14556;52.222;4.510;2023-04-25T12:29:34;100996.91;;;7.76;100.00
27014;BME280;14556;52.222;4.510;2023-04-25T12:32:14;101018.63;;;7.96;100.00
27014;BME280;14556;52.222;4.510;2023-04-25T12:34:41;101022.81;;;7.91;100.00
27014;BME280;14556;52.222;4.510;2023-04-25T12:37:08;101020.50;;;7.88;100.00
27014;BME280;14556;52.222;4.510;2023-04-25T12:39:34;101033.47;;;7.91;100.00
27014;BME280;14556;52.222;4.510;2023-04-25T12:42:01;101031.94;;;7.96;100.00
27014;BME280;14556;52.222;4.510;2023-04-25T12:44:28;101037.69;;;8.08;100.00
27014;BME280;14556;52.222;4.510;2023-04-25T12:46:55;101042.00;;;7.86;100.00
27014;BME280;14556;52.222;4.510;2023-04-25T12:49:21;101044.88;;;7.36;100.00
27014;BME280;14556;52.222;4.510;2023-04-25T12:51:48;101048.66;;;6.93;100.00
27014;BME280;14556;52.222;4.510;2023-04-25T12:54:17;101050.50;;;6.76;100.00
27014;BME280;14556;52.222;4.510;2023-04-25T12:56:44;101050.69;;;6.66;100.00
27014;BME280;14556;52.222;4.510;2023-04-25T12:59:10;101056.00;;;6.83;100.00
27014;BME280;14556;52.222;4.510;2023-04-25T13:01:37;101058.28;;;7.03;100.00
27014;BME280;14556;52.222;4.510;2023-04-25T13:04:04;101056.25;;;7.21;100.00
27014;BME280;14556;52.222;4.510;2023-04-25T13:06:30;101034.47;;;7.09;100.00
27014;BME280;14556;52.222;4.510;2023-04-25T13:08:57;101061.53;;;7.30;100.00